createdAt,value
2023-02-08T00:02:19.498Z,14.35
2023-02-08T00:07:50.600Z,14.20
2023-02-08T00:13:21.837Z,15.05
2023-02-08T00:18:52.813Z,13.73
2023-02-08T00:24:23.623Z,15.18
2023-02-08T00:29:54.572Z,14.95
2023-02-08T00:35:25.697Z,14.50
2023-02-08T00:40:57.201Z,13.63
2023-02-08T00:46:29.264Z,15.02
2023-02-08T00:52:00.405Z,14.57
2023-02-08T00:57:35.352Z,14.57
2023-02-08T01:03:06.414Z,14.68
2023-02-08T01:08:38.005Z,14.32
2023-02-08T01:14:10.402Z,14.43
2023-02-08T01:19:42.661Z,14.70
2023-02-08T01:25:14.002Z,13.57
2023-02-08T01:30:45.311Z,14.70
2023-02-08T01:36:17.031Z,13.13
2023-02-08T01:41:48.719Z,15.38
2023-02-08T01:47:20.112Z,14.70
2023-02-08T01:52:52.047Z,14.20
2023-02-08T01:58:25.153Z,15.18
2023-02-08T02:03:57.441Z,15.43
2023-02-08T02:09:37.300Z,14.48
2023-02-08T02:15:09.878Z,13.05
2023-02-08T02:20:59.716Z,14.27
2023-02-08T02:26:48.253Z,15.48
2023-02-08T02:32:43.843Z,14.45
2023-02-08T02:38:30.645Z,15.32
2023-02-08T02:44:04.053Z,15.77
2023-02-08T02:50:12.719Z,15.10
2023-02-08T02:55:47.497Z,15.05
2023-02-08T03:01:26.320Z,16.40
2023-02-08T03:07:12.697Z,15.60
2023-02-08T03:13:01.828Z,14.52
2023-02-08T03:18:46.687Z,15.55
2023-02-08T03:24:28.962Z,15.50
2023-02-08T03:30:09.394Z,15.40
2023-02-08T03:35:50.693Z,15.85
2023-02-08T03:41:27.267Z,15.52
2023-02-08T03:47:03.059Z,15.57
2023-02-08T03:52:35.343Z,16.42
2023-02-08T03:58:18.436Z,15.65
2023-02-08T04:03:53.429Z,15.52
2023-02-08T04:09:24.533Z,15.35
2023-02-08T04:14:56.048Z,16.75
2023-02-08T04:20:27.185Z,16.35
2023-02-08T04:25:58.500Z,16.20
2023-02-08T04:31:30.075Z,16.77
2023-02-08T04:37:01.602Z,15.82
2023-02-08T04:42:32.752Z,16.02
2023-02-08T04:48:04.740Z,15.77
2023-02-08T04:53:35.953Z,14.52
2023-02-08T04:59:08.150Z,15.63
2023-02-08T05:04:39.377Z,15.02
2023-02-08T05:10:10.749Z,15.07
2023-02-08T05:15:42.147Z,14.90
2023-02-08T05:21:13.684Z,16.27
2023-02-08T05:26:44.640Z,16.13
2023-02-08T05:32:15.834Z,15.65
2023-02-08T05:37:47.172Z,14.32
2023-02-08T05:43:18.478Z,14.90
2023-02-08T05:48:49.643Z,15.05
2023-02-08T05:54:20.571Z,15.02
2023-02-08T05:59:51.817Z,15.23
2023-02-08T06:05:23.250Z,16.02
2023-02-08T06:10:54.380Z,15.27
2023-02-08T06:16:25.364Z,15.13
2023-02-08T06:21:57.067Z,15.57
2023-02-08T06:27:28.784Z,13.55
2023-02-08T06:32:59.857Z,16.27
2023-02-08T06:38:31.206Z,14.50
2023-02-08T06:44:02.794Z,14.73
2023-02-08T06:49:33.985Z,13.73
2023-02-08T06:55:05.494Z,15.10
2023-02-08T07:00:36.598Z,15.35
2023-02-08T07:06:15.315Z,14.77
2023-02-08T07:11:46.643Z,14.32
2023-02-08T07:17:17.702Z,14.52
2023-02-08T07:22:49.394Z,13.77
2023-02-08T07:28:20.683Z,14.85
2023-02-08T07:33:52.130Z,14.05
2023-02-08T07:39:23.939Z,15.40
2023-02-08T07:44:54.957Z,14.55
2023-02-08T07:50:26.040Z,14.32
2023-02-08T07:55:57.414Z,15.18
2023-02-08T08:01:28.658Z,15.55
2023-02-08T08:06:59.823Z,14.98
2023-02-08T08:12:31.175Z,14.85
2023-02-08T08:18:02.034Z,14.40
2023-02-08T08:23:36.493Z,15.95
2023-02-08T08:29:07.895Z,15.30
2023-02-08T08:34:39.006Z,14.93
2023-02-08T08:40:10.532Z,14.13
2023-02-08T08:45:41.530Z,14.75
2023-02-08T08:51:13.299Z,15.50
2023-02-08T08:56:44.663Z,15.93
2023-02-08T09:02:16.293Z,15.15
2023-02-08T09:07:47.570Z,16.77
2023-02-08T09:13:22.043Z,15.18
2023-02-08T09:18:53.385Z,15.35
2023-02-08T09:24:24.767Z,15.18
2023-02-08T09:29:55.804Z,15.05
2023-02-08T09:35:27.009Z,15.13
2023-02-08T09:41:22.109Z,15.52
2023-02-08T09:47:07.393Z,14.45
2023-02-08T09:52:44.284Z,14.23
2023-02-08T09:58:28.454Z,14.35
2023-02-08T10:04:17.833Z,14.48
2023-02-08T10:09:48.717Z,14.10
2023-02-08T10:15:32.447Z,14.65
2023-02-08T10:21:14.190Z,14.30
2023-02-08T10:26:54.115Z,14.80
2023-02-08T10:32:48.110Z,14.43
2023-02-08T10:38:45.317Z,15.18
2023-02-08T10:44:41.839Z,15.02
2023-02-08T10:50:30.203Z,13.98
2023-02-08T10:56:02.281Z,13.82
2023-02-08T11:01:34.271Z,14.48
2023-02-08T11:07:21.636Z,13.90
2023-02-08T11:12:57.460Z,14.02
2023-02-08T11:18:50.366Z,13.82
2023-02-08T11:24:33.344Z,14.93
2023-02-08T11:30:25.034Z,14.85
2023-02-08T11:36:05.068Z,13.48
2023-02-08T11:41:37.783Z,14.68
2023-02-08T11:47:10.683Z,13.93
2023-02-08T11:52:43.088Z,13.75
2023-02-08T11:58:24.885Z,14.35
2023-02-08T12:03:58.537Z,13.65
2023-02-08T12:09:39.567Z,13.88
2023-02-08T12:15:17.309Z,13.65
2023-02-08T12:20:54.841Z,12.90
2023-02-08T12:26:34.778Z,13.98
2023-02-08T12:32:17.665Z,13.25
2023-02-08T12:38:13.070Z,12.73
2023-02-08T12:43:58.889Z,11.93
2023-02-08T12:49:41.820Z,12.57
2023-02-08T12:55:26.034Z,11.35
2023-02-08T13:01:02.647Z,11.98
2023-02-08T13:06:46.903Z,11.48
2023-02-08T13:12:27.467Z,11.60
2023-02-08T13:18:00.575Z,10.07
2023-02-08T13:23:51.726Z,11.53
2023-02-08T13:29:27.178Z,10.90
2023-02-08T13:35:14.087Z,10.13
2023-02-08T13:40:46.007Z,10.90
2023-02-08T13:46:19.245Z,10.45
2023-02-08T13:51:54.602Z,10.77
2023-02-08T13:57:56.570Z,10.40
2023-02-08T14:03:28.947Z,10.20
2023-02-08T14:09:16.292Z,9.75
2023-02-08T14:15:25.349Z,9.55
2023-02-08T14:21:07.030Z,9.38
2023-02-08T14:26:38.304Z,9.25
2023-02-08T14:32:10.827Z,9.40
2023-02-08T14:37:44.110Z,8.68
2023-02-08T14:43:21.405Z,8.98
2023-02-08T14:48:53.267Z,9.20
2023-02-08T14:54:47.653Z,9.13
2023-02-08T15:00:33.315Z,7.75
2023-02-08T15:06:30.905Z,8.05
2023-02-08T15:12:03.743Z,8.30
2023-02-08T15:17:38.072Z,8.93
2023-02-08T15:28:53.553Z,8.18
2023-02-08T15:34:25.817Z,7.38
2023-02-08T15:39:59.345Z,7.07
2023-02-08T15:45:30.995Z,7.10
2023-02-08T15:51:05.253Z,7.07
2023-02-08T16:02:23.592Z,6.93
2023-02-08T16:07:56.024Z,7.40
2023-02-08T16:13:38.921Z,6.72
2023-02-08T16:19:29.016Z,7.13
2023-02-08T16:25:37.188Z,7.03
2023-02-08T16:31:08.855Z,7.22
2023-02-08T16:36:42.111Z,6.38
2023-02-08T16:42:31.555Z,6.95
2023-02-08T16:48:13.349Z,6.78
2023-02-08T16:53:51.577Z,6.57
2023-02-08T16:59:23.471Z,6.78
2023-02-08T17:04:55.006Z,6.30
2023-02-08T17:10:29.379Z,6.57
2023-02-08T17:16:00.903Z,5.82
2023-02-08T17:21:32.513Z,6.05
2023-02-08T17:27:04.009Z,6.00
2023-02-08T17:32:35.290Z,6.63
2023-02-08T17:38:06.675Z,6.45
2023-02-08T17:43:38.435Z,6.63
2023-02-08T17:49:09.981Z,6.07
2023-02-08T17:54:41.040Z,5.28
2023-02-08T18:00:22.701Z,5.97
2023-02-08T18:05:58.164Z,5.18
2023-02-08T18:11:29.280Z,6.13
2023-02-08T18:17:01.513Z,5.43
2023-02-08T18:22:33.661Z,5.70
2023-02-08T18:28:05.507Z,5.57
2023-02-08T18:33:37.543Z,5.53
2023-02-08T18:39:09.102Z,5.38
2023-02-08T18:44:40.196Z,6.18
2023-02-08T18:50:11.950Z,5.20
2023-02-08T18:55:43.943Z,5.93
2023-02-08T19:01:17.362Z,5.30
2023-02-08T19:12:21.363Z,5.68
2023-02-08T19:17:54.403Z,5.35
2023-02-08T19:23:25.702Z,5.70
2023-02-08T19:29:00.966Z,5.63
2023-02-08T19:34:32.526Z,5.45
2023-02-08T19:40:05.806Z,5.80
2023-02-08T19:45:37.165Z,5.47
2023-02-08T19:51:08.731Z,5.50
2023-02-08T19:56:41.000Z,5.45
2023-02-08T20:02:14.181Z,5.20
2023-02-08T20:07:45.449Z,5.80
2023-02-08T20:13:16.938Z,6.30
2023-02-08T20:18:48.494Z,5.97
2023-02-08T20:24:19.693Z,5.60
2023-02-08T20:29:50.709Z,4.70
2023-02-08T20:35:22.716Z,5.97
2023-02-08T20:41:01.858Z,5.25
2023-02-08T20:46:34.956Z,5.03
2023-02-08T20:52:06.174Z,5.87
2023-02-08T20:57:37.313Z,5.18
2023-02-08T21:03:08.394Z,5.32
2023-02-08T21:08:39.713Z,4.93
2023-02-08T21:14:19.131Z,5.18
2023-02-08T21:19:50.538Z,5.57
2023-02-08T21:25:21.813Z,5.13
2023-02-08T21:31:00.858Z,5.18
2023-02-08T21:36:32.946Z,5.15
2023-02-08T21:42:04.423Z,5.38
2023-02-08T21:47:35.840Z,6.30
2023-02-08T21:53:25.437Z,6.03
2023-02-08T21:58:56.697Z,5.22
2023-02-08T22:04:27.997Z,5.43
2023-02-08T22:09:59.367Z,5.70
2023-02-08T22:15:30.706Z,6.18
2023-02-08T22:21:04.611Z,5.57
2023-02-08T22:26:35.913Z,9.02
2023-02-08T22:32:10.041Z,10.18
2023-02-08T22:37:41.494Z,10.10
2023-02-08T22:43:12.538Z,8.95
2023-02-08T22:48:43.897Z,9.50
2023-02-08T22:54:15.187Z,8.93
2023-02-08T22:59:47.789Z,9.77
2023-02-08T23:05:18.857Z,8.68
2023-02-08T23:10:50.165Z,8.95
2023-02-08T23:16:21.207Z,7.45
2023-02-08T23:21:52.528Z,7.43
2023-02-08T23:27:23.456Z,6.97
2023-02-08T23:32:54.631Z,7.72
2023-02-08T23:38:25.644Z,7.00
2023-02-08T23:43:57.025Z,6.55
2023-02-08T23:49:28.225Z,7.60
2023-02-08T23:54:59.094Z,7.90
